createdAt,value
2019-04-30T00:01:58.476Z,30.63
2019-04-30T00:06:59.740Z,28.40
2019-04-30T00:12:03.182Z,28.67
2019-04-30T00:17:10.678Z,25.80
2019-04-30T00:22:11.868Z,26.50
2019-04-30T00:27:15.270Z,27.80
2019-04-30T00:32:18.677Z,25.03
2019-04-30T00:37:22.077Z,27.53
2019-04-30T00:42:28.830Z,24.70
2019-04-30T00:47:30.636Z,28.70
2019-04-30T00:52:36.922Z,28.43
2019-04-30T00:57:43.747Z,30.73
2019-04-30T01:02:49.866Z,29.23
2019-04-30T01:07:55.010Z,27.43
2019-04-30T01:13:01.833Z,30.67
2019-04-30T01:18:03.800Z,29.20
2019-04-30T01:23:11.090Z,29.17
2019-04-30T01:28:16.485Z,27.63
2019-04-30T01:33:19.174Z,27.93
2019-04-30T01:38:22.720Z,25.97
2019-04-30T01:43:31.436Z,26.90
2019-04-30T01:48:31.274Z,27.27
2019-04-30T01:53:35.645Z,27.97
2019-04-30T01:58:40.693Z,28.53
2019-04-30T02:03:44.097Z,29.83
2019-04-30T02:08:49.273Z,28.03
2019-04-30T02:13:52.810Z,26.07
2019-04-30T02:18:56.223Z,24.73
2019-04-30T02:23:59.626Z,26.17
2019-04-30T02:29:03.036Z,28.33
2019-04-30T02:34:10.183Z,27.27
2019-04-30T02:39:13.313Z,27.23
2019-04-30T02:44:19.584Z,27.83
2019-04-30T02:49:23.805Z,28.87
2019-04-30T02:54:29.927Z,27.97
2019-04-30T02:59:33.355Z,28.00
2019-04-30T03:04:39.365Z,22.30
2019-04-30T03:09:41.925Z,26.70
2019-04-30T03:14:45.465Z,25.40
2019-04-30T03:19:50.542Z,25.53
2019-04-30T03:24:54.004Z,24.07
2019-04-30T03:29:59.959Z,25.27
2019-04-30T03:35:03.386Z,23.73
2019-04-30T03:40:13.258Z,23.73
2019-04-30T03:45:15.896Z,24.67
2019-04-30T03:50:19.950Z,23.27
2019-04-30T03:55:24.954Z,25.83
2019-04-30T04:00:46.792Z,27.60
2019-04-30T04:05:51.893Z,26.87
2019-04-30T04:10:56.974Z,24.87
2019-04-30T04:16:00.521Z,24.90
2019-04-30T04:21:11.692Z,26.67
2019-04-30T04:26:09.538Z,24.37
2019-04-30T04:31:14.370Z,29.07
2019-04-30T04:36:19.842Z,28.53
2019-04-30T04:41:22.931Z,24.53
2019-04-30T04:46:26.387Z,27.50
2019-04-30T04:51:38.164Z,31.10
2019-04-30T04:56:34.959Z,24.57
2019-04-30T05:01:38.833Z,31.07
2019-04-30T05:06:42.382Z,28.27
2019-04-30T05:11:45.782Z,26.37
2019-04-30T05:16:49.210Z,28.03
2019-04-30T05:21:52.657Z,28.83
2019-04-30T05:26:56.089Z,28.77
2019-04-30T05:31:59.499Z,31.87
2019-04-30T05:37:02.915Z,32.20
2019-04-30T05:42:06.471Z,28.47
2019-04-30T05:47:09.886Z,33.93
2019-04-30T05:52:13.302Z,28.93
2019-04-30T05:57:16.717Z,28.17
2019-04-30T06:02:20.137Z,31.73
2019-04-30T06:07:23.553Z,30.17
2019-04-30T06:12:31.414Z,28.83
2019-04-30T06:17:36.475Z,30.57
2019-04-30T06:22:40.632Z,29.93
2019-04-30T06:27:44.421Z,30.83
2019-04-30T06:32:49.627Z,30.67
2019-04-30T06:37:53.163Z,29.27
2019-04-30T06:43:00.393Z,30.90
2019-04-30T06:48:04.342Z,30.23
2019-04-30T06:53:09.292Z,32.73
2019-04-30T06:58:15.587Z,33.83
2019-04-30T07:03:19.170Z,32.47
2019-04-30T07:08:42.483Z,32.97
2019-04-30T07:13:45.996Z,34.47
2019-04-30T07:18:49.464Z,33.30
2019-04-30T07:23:53.039Z,31.83
2019-04-30T07:28:56.458Z,29.23
2019-04-30T07:33:59.949Z,30.30
2019-04-30T07:39:05.832Z,29.80
2019-04-30T07:44:10.990Z,28.37
2019-04-30T07:49:14.486Z,28.37
2019-04-30T07:54:18.981Z,26.07
2019-04-30T07:59:22.858Z,27.97
2019-04-30T08:04:29.258Z,24.27
2019-04-30T08:09:39.072Z,26.10
2019-04-30T08:14:39.097Z,24.37
2019-04-30T08:19:42.620Z,24.03
2019-04-30T08:24:46.102Z,26.27
2019-04-30T08:29:50.142Z,27.63
2019-04-30T08:34:53.577Z,22.43
2019-04-30T08:39:57.076Z,24.37
2019-04-30T08:45:00.487Z,21.40
2019-04-30T08:50:05.365Z,21.73
2019-04-30T08:55:16.237Z,22.77
2019-04-30T09:00:15.125Z,21.13
2019-04-30T09:05:20.584Z,22.33
2019-04-30T09:10:24.030Z,20.50
2019-04-30T09:15:29.040Z,20.00
2019-04-30T09:20:32.634Z,17.67
2019-04-30T09:25:36.396Z,21.10
2019-04-30T09:30:39.799Z,20.03
2019-04-30T09:35:43.411Z,20.27
2019-04-30T09:40:46.940Z,18.63
2019-04-30T09:45:50.371Z,20.87
2019-04-30T09:50:54.088Z,20.03
2019-04-30T09:55:59.554Z,18.47
2019-04-30T10:01:02.907Z,18.63
2019-04-30T10:06:06.403Z,17.40
2019-04-30T10:11:20.302Z,18.10
2019-04-30T10:16:40.374Z,18.93
2019-04-30T10:21:44.107Z,19.10
2019-04-30T10:26:47.606Z,18.20
2019-04-30T10:31:51.503Z,18.47
2019-04-30T10:36:54.933Z,18.43
2019-04-30T10:41:58.404Z,19.00
2019-04-30T10:47:01.869Z,18.60
2019-04-30T10:52:05.406Z,19.17
2019-04-30T10:57:09.180Z,19.43
2019-04-30T11:02:12.704Z,17.77
2019-04-30T11:07:16.257Z,18.40
2019-04-30T11:12:19.843Z,17.93
2019-04-30T11:17:23.567Z,16.47
2019-04-30T11:22:27.317Z,15.80
2019-04-30T11:27:31.494Z,16.83
2019-04-30T11:32:35.517Z,15.67
2019-04-30T11:37:39.073Z,15.37
2019-04-30T11:42:42.571Z,15.90
2019-04-30T11:47:53.270Z,17.90
2019-04-30T11:52:51.139Z,18.03
2019-04-30T11:57:54.607Z,14.87
2019-04-30T12:02:59.351Z,16.17
2019-04-30T12:08:04.513Z,16.80
2019-04-30T12:13:09.666Z,16.53
2019-04-30T12:18:13.047Z,14.93
2019-04-30T12:23:16.477Z,13.27
2019-04-30T12:28:19.917Z,14.03
2019-04-30T12:33:23.318Z,14.73
2019-04-30T12:38:26.742Z,14.27
2019-04-30T12:43:30.155Z,12.73
2019-04-30T12:48:52.676Z,12.20
2019-04-30T12:54:00.546Z,13.93
2019-04-30T12:59:03.949Z,14.17
2019-04-30T13:04:09.645Z,11.83
2019-04-30T13:09:13.120Z,11.53
2019-04-30T13:14:19.548Z,11.17
2019-04-30T13:19:22.248Z,11.30
2019-04-30T13:24:25.748Z,11.13
2019-04-30T13:29:31.737Z,11.20
2019-04-30T13:34:51.596Z,8.87
2019-04-30T13:39:56.705Z,11.67
2019-04-30T13:45:00.095Z,10.60
2019-04-30T13:50:04.834Z,10.90
2019-04-30T13:55:10.751Z,7.80
2019-04-30T14:00:22.121Z,9.47
2019-04-30T14:05:25.753Z,7.77
2019-04-30T14:10:30.893Z,7.70
2019-04-30T14:15:34.381Z,9.40
2019-04-30T14:20:37.968Z,9.37
2019-04-30T14:25:41.362Z,9.57
2019-04-30T14:30:44.861Z,9.40
2019-04-30T14:35:49.762Z,8.93
2019-04-30T14:40:53.789Z,9.30
2019-04-30T14:46:15.555Z,10.57
2019-04-30T14:51:19.193Z,10.80
2019-04-30T14:56:26.967Z,35.50
2019-04-30T15:01:32.036Z,10.80
2019-04-30T15:06:35.457Z,12.63
2019-04-30T15:11:38.967Z,13.53
2019-04-30T15:16:42.371Z,10.83
2019-04-30T15:21:45.843Z,10.83
2019-04-30T15:26:57.687Z,9.60
2019-04-30T15:31:55.091Z,11.90
2019-04-30T15:36:59.137Z,10.00
2019-04-30T15:42:02.843Z,13.27
2019-04-30T15:47:06.634Z,10.80
2019-04-30T15:52:11.074Z,12.43
2019-04-30T15:57:14.528Z,13.20
2019-04-30T16:02:25.418Z,8.87
2019-04-30T16:07:29.541Z,11.97
2019-04-30T16:12:52.072Z,13.70
2019-04-30T16:17:59.822Z,9.60
2019-04-30T16:23:03.324Z,11.60
2019-04-30T16:28:08.546Z,13.20
2019-04-30T16:33:12.657Z,13.03
2019-04-30T16:38:16.050Z,13.10
2019-04-30T16:43:20.333Z,12.80
2019-04-30T16:48:23.896Z,15.03
2019-04-30T16:53:27.300Z,12.80
2019-04-30T16:58:32.342Z,13.63
2019-04-30T17:03:38.809Z,13.00
2019-04-30T17:08:49.329Z,12.43
2019-04-30T17:13:53.797Z,14.50
2019-04-30T17:18:59.081Z,13.20
2019-04-30T17:24:02.539Z,13.20
2019-04-30T17:29:06.006Z,14.37
2019-04-30T17:34:09.414Z,13.57
2019-04-30T17:39:14.543Z,14.00
2019-04-30T17:44:18.696Z,13.73
2019-04-30T17:49:22.154Z,15.90
2019-04-30T17:54:25.653Z,13.40
2019-04-30T17:59:29.072Z,13.70
2019-04-30T18:04:32.757Z,13.47
2019-04-30T18:09:36.188Z,13.40
2019-04-30T18:14:39.696Z,13.97
2019-04-30T18:19:44.751Z,14.77
2019-04-30T18:24:49.875Z,15.47
2019-04-30T18:29:53.306Z,14.33
2019-04-30T18:34:56.735Z,13.93
2019-04-30T18:40:00.245Z,14.07
2019-04-30T18:45:03.809Z,13.00
2019-04-30T18:50:09.323Z,12.27
2019-04-30T18:55:13.106Z,15.03
2019-04-30T19:00:19.759Z,13.63
2019-04-30T19:05:25.143Z,29.87
2019-04-30T19:10:46.327Z,17.13
2019-04-30T19:16:18.173Z,13.53
2019-04-30T19:21:00.547Z,15.13
2019-04-30T19:26:04.121Z,13.87
2019-04-30T19:31:09.176Z,13.87
2019-04-30T19:36:13.534Z,16.23
2019-04-30T19:41:18.577Z,14.53
2019-04-30T19:46:22.093Z,20.13
2019-04-30T19:51:25.530Z,15.27
2019-04-30T19:56:30.309Z,18.10
2019-04-30T20:01:34.103Z,18.60
2019-04-30T20:06:38.636Z,17.10
2019-04-30T20:11:42.638Z,17.63
2019-04-30T20:16:46.112Z,15.83
2019-04-30T20:21:53.621Z,17.20
2019-04-30T20:27:05.811Z,16.60
2019-04-30T20:31:59.901Z,18.50
2019-04-30T20:37:03.359Z,19.97
2019-04-30T20:42:06.772Z,18.47
2019-04-30T20:47:10.213Z,16.83
2019-04-30T20:52:13.621Z,21.83
2019-04-30T20:57:17.042Z,17.07
2019-04-30T21:02:20.610Z,21.07
2019-04-30T21:07:23.968Z,18.80
2019-04-30T21:12:28.825Z,20.37
2019-04-30T21:17:32.382Z,18.07
2019-04-30T21:22:35.799Z,16.53
2019-04-30T21:27:40.120Z,17.10
2019-04-30T21:32:59.240Z,18.73
2019-04-30T21:38:02.787Z,20.67
2019-04-30T21:43:06.212Z,18.20
2019-04-30T21:48:09.638Z,19.93
2019-04-30T21:53:13.054Z,19.00
2019-04-30T21:58:16.476Z,18.50
2019-04-30T22:03:19.886Z,17.33
2019-04-30T22:08:23.345Z,17.67
2019-04-30T22:13:26.746Z,19.70
2019-04-30T22:18:30.175Z,21.80
2019-04-30T22:23:33.615Z,19.93
2019-04-30T22:28:37.052Z,21.17
2019-04-30T22:33:40.530Z,21.30
2019-04-30T22:38:45.591Z,20.73
2019-04-30T22:43:50.169Z,21.70
2019-04-30T22:48:53.610Z,19.43
2019-04-30T22:53:57.028Z,21.50
2019-04-30T22:59:00.526Z,23.17
2019-04-30T23:04:05.641Z,21.93
2019-04-30T23:09:11.476Z,21.00
2019-04-30T23:14:14.955Z,21.87
2019-04-30T23:19:18.402Z,21.23
2019-04-30T23:24:21.840Z,26.07
2019-04-30T23:29:25.347Z,28.60
2019-04-30T23:34:28.781Z,23.63
2019-04-30T23:39:32.177Z,25.40
2019-04-30T23:44:35.652Z,26.77
2019-04-30T23:49:39.079Z,22.93
2019-04-30T23:54:42.561Z,24.97
2019-04-30T23:59:45.981Z,26.23
